| time (UTC) | temp F | wind direction | speed MPH | gust MPH | rain 1hr in | rain 24hr in | rain mn in | humidity % | barometer mb |
| 20260904013204 | 60 | 247 | 15.0 | 20.0 | 0.00 | 0.16 | 0.00 | 85 | 1004.7 |
| 20260904012704 | 60 | 247 | 12.0 | 17.0 | 0.00 | 0.16 | 0.00 | 85 | 1004.7 |
| 20260904011706 | 60 | 263 | 7.0 | 16.0 | 0.00 | 0.17 | 0.00 | 85 | 1004.6 |
| 20260904011205 | 60 | 245 | 7.0 | 17.0 | 0.00 | 0.18 | 0.00 | 85 | 1004.8 |
| 20260904010204 | 60 | 249 | 10.0 | 17.0 | 0.00 | 0.19 | 0.00 | 85 | 1004.8 |
| 20260904005204 | 60 | 244 | 9.0 | 15.0 | 0.00 | 0.19 | 0.00 | 84 | 1004.8 |
| 20260904004704 | 60 | 255 | 6.0 | 15.0 | 0.00 | 0.19 | 0.00 | 84 | 1004.9 |
| 20260904003706 | 60 | 241 | 12.0 | 16.0 | 0.00 | 0.19 | 0.00 | 84 | 1005.1 |
| 20260904003205 | 60 | 229 | 8.0 | 17.0 | 0.00 | 0.19 | 0.00 | 84 | 1005.0 |
| 20260904002206 | 60 | 267 | 10.0 | 18.0 | 0.00 | 0.19 | 0.00 | 84 | 1005.0 |
| 20260904001706 | 60 | 253 | 10.0 | 21.0 | 0.00 | 0.19 | 0.00 | 84 | 1005.0 |
| 20260904001206 | 60 | 248 | 11.0 | 17.0 | 0.00 | 0.19 | 0.00 | 84 | 1005.0 |
| 20260904000705 | 60 | 270 | 10.0 | 17.0 | 0.00 | 0.19 | 0.00 | 84 | 1004.9 |
| 20260904000211 | 60 | 259 | 7.0 | 15.0 | 0.00 | 0.19 | 0.00 | 84 | 1004.8 |
| 20260903235711 | 60 | 256 | 11.0 | 16.0 | 0.00 | 0.19 | 0.00 | 84 | 1005.3 |
| 20260903234710 | 60 | 264 | 9.0 | 17.0 | 0.00 | 0.19 | 0.00 | 84 | 1005.3 |
| 20260903233210 | 61 | 265 | 11.0 | 18.0 | 0.00 | 0.19 | 0.00 | 85 | 1005.4 |
| 20260903232710 | 61 | 243 | 12.0 | 21.0 | 0.00 | 0.19 | 0.00 | 85 | 1005.1 |
| 20260903232210 | 61 | 232 | 7.0 | 18.0 | 0.00 | 0.19 | 0.00 | 85 | 1005.0 |
| 20260903231709 | 61 | 255 | 11.0 | 20.0 | 0.00 | 0.19 | 0.00 | 85 | 1005.0 |
| 20260903230709 | 61 | 255 | 7.0 | 17.0 | 0.00 | 0.19 | 0.00 | 86 | 1005.1 |
| 20260903230212 | 61 | 279 | 11.0 | 18.0 | 0.00 | 0.19 | 0.00 | 86 | 1005.2 |
| 20260903224711 | 61 | 254 | 7.0 | 17.0 | 0.00 | 0.19 | 0.00 | 87 | 1005.3 |
| 20260903223709 | 61 | 245 | 10.0 | 18.0 | 0.00 | 0.19 | 0.00 | 87 | 1005.3 |
| 20260903222209 | 61 | 257 | 12.0 | 17.0 | 0.00 | 0.19 | 0.00 | 87 | 1005.4 |
| 20260903215709 | 61 | 259 | 11.0 | 18.0 | 0.00 | 0.19 | 0.19 | 87 | 1005.5 |
| 20260903214712 | 61 | 262 | 7.0 | 15.0 | 0.00 | 0.19 | 0.19 | 87 | 1005.4 |
| 20260903213711 | 61 | 262 | 6.0 | 16.0 | 0.00 | 0.19 | 0.19 | 87 | 1005.4 |
| 20260903211210 | 61 | 246 | 12.0 | 17.0 | 0.00 | 0.20 | 0.19 | 87 | 1005.4 |
| 20260903210709 | 61 | 250 | 10.0 | 14.0 | 0.00 | 0.20 | 0.19 | 87 | 1005.4 |
| 20260903210209 | 61 | 269 | 12.0 | 18.0 | 0.00 | 0.20 | 0.19 | 87 | 1005.4 |
| 20260903205710 | 61 | 227 | 7.0 | 13.0 | 0.00 | 0.20 | 0.19 | 87 | 1005.4 |
| 20260903204709 | 61 | 251 | 11.0 | 20.0 | 0.00 | 0.20 | 0.19 | 86 | 1005.4 |
| 20260903204210 | 61 | 265 | 7.0 | 15.0 | 0.00 | 0.20 | 0.19 | 86 | 1005.4 |
| 20260903203709 | 62 | 234 | 9.0 | 20.0 | 0.00 | 0.20 | 0.19 | 86 | 1005.4 |
| 20260903201709 | 62 | 243 | 11.0 | 20.0 | 0.00 | 0.20 | 0.19 | 85 | 1005.4 |
| 20260903200710 | 62 | 266 | 12.0 | 22.0 | 0.00 | 0.20 | 0.19 | 85 | 1005.4 |
| 20260903194709 | 63 | 251 | 10.0 | 20.0 | 0.00 | 0.20 | 0.19 | 85 | 1005.3 |
| 20260903193711 | 63 | 267 | 12.0 | 20.0 | 0.00 | 0.20 | 0.19 | 85 | 1005.3 |
| 20260903193209 | 63 | 256 | 12.0 | 18.0 | 0.00 | 0.20 | 0.19 | 85 | 1005.3 |
| 20260903192709 | 63 | 262 | 9.0 | 21.0 | 0.00 | 0.20 | 0.19 | 85 | 1005.3 |
| 20260903192209 | 63 | 264 | 14.0 | 20.0 | 0.00 | 0.20 | 0.19 | 85 | 1005.3 |
| 20260903191211 | 63 | 261 | 17.0 | 26.0 | 0.00 | 0.20 | 0.19 | 85 | 1005.2 |
| 20260903190211 | 63 | 263 | 8.0 | 18.0 | 0.00 | 0.20 | 0.19 | 86 | 1005.2 |
| 20260903185710 | 63 | 260 | 12.0 | 23.0 | 0.00 | 0.20 | 0.19 | 86 | 1005.2 |
| 20260903185209 | 63 | 259 | 10.0 | 22.0 | 0.00 | 0.20 | 0.19 | 86 | 1005.3 |
| 20260903184709 | 63 | 261 | 9.0 | 18.0 | 0.00 | 0.20 | 0.19 | 86 | 1005.2 |
| 20260903183211 | 63 | 249 | 12.0 | 17.0 | 0.00 | 0.20 | 0.19 | 86 | 1005.0 |
| 20260903182209 | 64 | 269 | 10.0 | 16.0 | 0.00 | 0.20 | 0.19 | 86 | 1004.9 |
| 20260903180710 | 64 | 265 | 10.0 | 18.0 | 0.00 | 0.20 | 0.19 | 86 | 1004.7 |
| 20260903174709 | 65 | 245 | 16.0 | 23.0 | 0.00 | 0.20 | 0.19 | 87 | 1004.5 |
| 20260903174209 | 65 | 253 | 15.0 | 23.0 | 0.00 | 0.20 | 0.19 | 87 | 1004.5 |
| 20260903173709 | 65 | 253 | 16.0 | 24.0 | 0.00 | 0.20 | 0.19 | 87 | 1004.4 |
| 20260903173210 | 65 | 244 | 13.0 | 22.0 | 0.00 | 0.20 | 0.19 | 87 | 1004.4 |
| 20260903170209 | 66 | 233 | 10.0 | 16.0 | 0.00 | 0.20 | 0.19 | 87 | 1004.2 |
| 20260903164709 | 67 | 217 | 7.0 | 14.0 | 0.00 | 0.20 | 0.19 | 88 | 1004.1 |
| 20260903164210 | 67 | 251 | 10.0 | 16.0 | 0.00 | 0.20 | 0.19 | 88 | 1004.1 |
| 20260903163709 | 66 | 253 | 8.0 | 15.0 | 0.00 | 0.20 | 0.19 | 89 | 1004.2 |
| 20260903163210 | 66 | 244 | 9.0 | 17.0 | 0.00 | 0.20 | 0.19 | 89 | 1004.2 |
| 20260903162710 | 66 | 238 | 11.0 | 21.0 | 0.00 | 0.21 | 0.19 | 89 | 1004.2 |
| 20260903162209 | 66 | 253 | 8.0 | 20.0 | 0.00 | 0.21 | 0.19 | 89 | 1004.2 |
| 20260903161209 | 66 | 254 | 6.0 | 17.0 | 0.00 | 0.21 | 0.19 | 90 | 1004.2 |
| 20260903160710 | 67 | 243 | 9.0 | 15.0 | 0.00 | 0.22 | 0.19 | 90 | 1004.2 |
| 20260903155711 | 67 | 254 | 12.0 | 20.0 | 0.00 | 0.23 | 0.19 | 91 | 1004.4 |
| 20260903155208 | 66 | 246 | 10.0 | 15.0 | 0.00 | 0.23 | 0.19 | 92 | 1004.4 |
| 20260903154209 | 66 | 256 | 6.0 | 16.0 | 0.00 | 0.23 | 0.19 | 92 | 1004.4 |
| 20260903153709 | 67 | 252 | 8.0 | 18.0 | 0.00 | 0.23 | 0.19 | 92 | 1004.4 |
| 20260903152709 | 67 | 210 | 10.0 | 20.0 | 0.01 | 0.23 | 0.19 | 93 | 1004.3 |
| 20260903152211 | 67 | 238 | 9.0 | 16.0 | 0.01 | 0.23 | 0.19 | 93 | 1004.3 |
| 20260903150209 | 66 | 243 | 13.0 | 18.0 | 0.04 | 0.24 | 0.19 | 93 | 1004.3 |
| 20260903145711 | 65 | 233 | 9.0 | 20.0 | 0.04 | 0.24 | 0.19 | 93 | 1004.3 |
| 20260903144710 | 65 | 252 | 9.0 | 17.0 | 0.04 | 0.24 | 0.19 | 93 | 1004.3 |
| 20260903144208 | 65 | 241 | 7.0 | 16.0 | 0.04 | 0.24 | 0.19 | 93 | 1004.4 |
| 20260903143710 | 65 | 237 | 5.0 | 13.0 | 0.04 | 0.26 | 0.19 | 93 | 1004.4 |
| 20260903143208 | 65 | 243 | 3.0 | 8.0 | 0.04 | 0.26 | 0.19 | 93 | 1004.4 |
| 20260903142709 | 64 | 224 | 1.0 | 10.0 | 0.03 | 0.24 | 0.18 | 93 | 1004.7 |
| 20260903141709 | 64 | 254 | 7.0 | 14.0 | 0.01 | 0.26 | 0.16 | 92 | 1004.7 |
| 20260903141209 | 64 | 213 | 9.0 | 14.0 | 0.00 | 0.26 | 0.15 | 93 | 1004.7 |
| 20260903135208 | 65 | 215 | 7.0 | 16.0 | 0.01 | 0.28 | 0.15 | 93 | 1004.6 |
| 20260903134210 | 64 | 184 | 8.0 | 14.0 | 0.01 | 0.28 | 0.15 | 93 | 1004.7 |
| 20260903133709 | 64 | 189 | 9.0 | 17.0 | 0.01 | 0.28 | 0.15 | 93 | 1004.7 |
| 20260903133209 | 64 | 189 | 7.0 | 10.0 | 0.01 | 0.28 | 0.15 | 93 | 1004.7 |
| 20260903132208 | 64 | 209 | 9.0 | 14.0 | 0.01 | 0.28 | 0.15 | 93 | 1004.8 |
| 20260903131709 | 64 | 216 | 7.0 | 14.0 | 0.01 | 0.28 | 0.15 | 93 | 1004.7 |
| 20260903130710 | 63 | 201 | 6.0 | 15.0 | 0.00 | 0.27 | 0.14 | 93 | 1004.8 |
| 20260903130209 | 63 | 176 | 6.0 | 14.0 | 0.00 | 0.27 | 0.14 | 93 | 1004.9 |
| 20260903125710 | 63 | 176 | 7.0 | 13.0 | 0.00 | 0.27 | 0.14 | 93 | 1004.9 |
| 20260903124709 | 63 | 172 | 5.0 | 14.0 | 0.00 | 0.27 | 0.14 | 93 | 1004.9 |
| 20260903124209 | 63 | 202 | 7.0 | 10.0 | 0.00 | 0.27 | 0.14 | 93 | 1004.9 |
| 20260903123709 | 63 | 183 | 7.0 | 15.0 | 0.00 | 0.27 | 0.14 | 93 | 1004.9 |
| 20260903123209 | 63 | 180 | 7.0 | 14.0 | 0.00 | 0.27 | 0.14 | 93 | 1005.0 |
| 20260903122710 | 63 | 192 | 11.0 | 16.0 | 0.00 | 0.27 | 0.14 | 93 | 1005.2 |
| 20260903120708 | 62 | 188 | 9.0 | 16.0 | 0.02 | 0.27 | 0.14 | 93 | 1005.2 |
| 20260903115709 | 62 | 199 | 8.0 | 15.0 | 0.02 | 0.27 | 0.14 | 93 | 1005.3 |
| 20260903115211 | 62 | 188 | 9.0 | 15.0 | 0.02 | 0.27 | 0.14 | 93 | 1005.4 |
| 20260903114210 | 62 | 170 | 8.0 | 14.0 | 0.02 | 0.27 | 0.14 | 93 | 1005.6 |
| 20260903113709 | 62 | 186 | 10.0 | 15.0 | 0.02 | 0.27 | 0.14 | 93 | 1005.6 |
| 20260903113211 | 62 | 186 | 9.0 | 21.0 | 0.02 | 0.27 | 0.14 | 93 | 1005.6 |
| 20260903112708 | 62 | 192 | 9.0 | 16.0 | 0.02 | 0.27 | 0.14 | 93 | 1005.6 |
| 20260903111210 | 62 | 196 | 8.0 | 16.0 | 0.02 | 0.27 | 0.14 | 93 | 1005.8 |
| 20260903110709 | 62 | 180 | 7.0 | 16.0 | 0.00 | 0.24 | 0.12 | 93 | 1005.8 |
| 20260903105710 | 62 | 176 | 10.0 | 18.0 | 0.01 | 0.24 | 0.12 | 93 | 1006.1 |
| 20260903105209 | 62 | 177 | 9.0 | 14.0 | 0.01 | 0.24 | 0.12 | 93 | 1006.1 |
| 20260903104710 | 62 | 189 | 7.0 | 16.0 | 0.01 | 0.24 | 0.12 | 93 | 1006.2 |
| 20260903104209 | 62 | 176 | 10.0 | 16.0 | 0.01 | 0.24 | 0.12 | 93 | 1006.3 |
| 20260903103210 | 61 | 164 | 8.0 | 14.0 | 0.01 | 0.24 | 0.12 | 93 | 1006.4 |
| 20260903102708 | 61 | 181 | 9.0 | 21.0 | 0.01 | 0.24 | 0.12 | 93 | 1006.4 |
| 20260903101211 | 61 | 190 | 10.0 | 16.0 | 0.02 | 0.24 | 0.12 | 93 | 1006.6 |
| 20260903100209 | 61 | 180 | 10.0 | 16.0 | 0.02 | 0.24 | 0.12 | 93 | 1006.8 |
| 20260903095209 | 61 | 163 | 10.0 | 16.0 | 0.01 | 0.23 | 0.11 | 93 | 1007.0 |
| 20260903094209 | 61 | 162 | 8.0 | 15.0 | 0.01 | 0.23 | 0.11 | 93 | 1007.3 |
| 20260903092209 | 61 | 171 | 10.0 | 16.0 | 0.02 | 0.23 | 0.11 | 93 | 1007.5 |
| 20260903091708 | 60 | 171 | 9.0 | 15.0 | 0.01 | 0.22 | 0.10 | 93 | 1007.5 |
| 20260903091210 | 60 | 163 | 6.0 | 14.0 | 0.01 | 0.22 | 0.10 | 93 | 1007.7 |
| 20260903084209 | 60 | 169 | 10.0 | 17.0 | 0.01 | 0.22 | 0.10 | 93 | 1008.0 |
| 20260903083708 | 60 | 160 | 7.0 | 13.0 | 0.02 | 0.22 | 0.10 | 93 | 1008.0 |
| 20260903082209 | 61 | 167 | 11.0 | 15.0 | 0.02 | 0.21 | 0.09 | 93 | 1008.2 |
| 20260903081709 | 61 | 172 | 10.0 | 16.0 | 0.02 | 0.21 | 0.09 | 93 | 1008.2 |
| 20260903081210 | 61 | 181 | 6.0 | 15.0 | 0.02 | 0.21 | 0.09 | 93 | 1008.3 |
| 20260903080210 | 60 | 162 | 4.0 | 10.0 | 0.03 | 0.21 | 0.09 | 93 | 1008.4 |
| 20260903073209 | 61 | 165 | 5.0 | 6.0 | 0.01 | 0.19 | 0.06 | 93 | 1008.7 |
| 20260903072208 | 61 | 171 | 4.0 | 6.0 | 0.01 | 0.19 | 0.06 | 93 | 1008.7 |
| 20260903071208 | 61 | 197 | 3.0 | 5.0 | 0.01 | 0.19 | 0.06 | 93 | 1008.8 |
| 20260903070711 | 61 | 210 | 2.0 | 5.0 | 0.00 | 0.18 | 0.05 | 93 | 1008.8 |
| 20260903065708 | 61 | 208 | 4.0 | 5.0 | 0.00 | 0.18 | 0.05 | 93 | 1008.9 |
| 20260903064708 | 61 | 174 | 6.0 | 10.0 | 0.00 | 0.18 | 0.05 | 93 | 1009.1 |
| 20260903064211 | 61 | 144 | 6.0 | 8.0 | 0.00 | 0.18 | 0.05 | 93 | 1009.1 |
| 20260903062710 | 61 | 159 | 5.0 | 8.0 | 0.01 | 0.18 | 0.05 | 93 | 1009.3 |
| 20260903062208 | 61 | 204 | 6.0 | 10.0 | 0.01 | 0.18 | 0.05 | 93 | 1009.4 |
| 20260903061710 | 61 | 189 | 5.0 | 8.0 | 0.01 | 0.18 | 0.05 | 93 | 1009.4 |
| 20260903061209 | 61 | 183 | 5.0 | 7.0 | 0.01 | 0.18 | 0.05 | 93 | 1009.4 |
| 20260903060708 | 61 | 171 | 3.0 | 7.0 | 0.01 | 0.18 | 0.05 | 93 | 1009.4 |
| 20260903055710 | 60 | 151 | 4.0 | 14.0 | 0.01 | 0.18 | 0.05 | 93 | 1009.5 |
| 20260903054208 | 60 | 192 | 4.0 | 7.0 | 0.01 | 0.18 | 0.05 | 93 | 1009.6 |
| 20260903053208 | 60 | 178 | 5.0 | 13.0 | 0.00 | 0.17 | 0.04 | 93 | 1009.7 |
| 20260903052709 | 60 | 182 | 7.0 | 10.0 | 0.00 | 0.17 | 0.04 | 93 | 1009.7 |
| 20260903052208 | 60 | 183 | 6.0 | 8.0 | 0.00 | 0.17 | 0.04 | 93 | 1009.8 |
| 20260903051208 | 59 | 165 | 7.0 | 14.0 | 0.01 | 0.17 | 0.04 | 93 | 1009.9 |
| 20260903050209 | 59 | 179 | 5.0 | 7.0 | 0.01 | 0.17 | 0.04 | 93 | 1010.0 |
| 20260903045708 | 59 | 191 | 5.0 | 8.0 | 0.01 | 0.17 | 0.04 | 93 | 1010.0 |
| 20260903044210 | 59 | 185 | 5.0 | 8.0 | 0.01 | 0.17 | 0.04 | 93 | 1010.2 |
| 20260903043707 | 59 | 169 | 5.0 | 7.0 | 0.01 | 0.17 | 0.04 | 93 | 1010.2 |
| 20260903043208 | 59 | 188 | 4.0 | 7.0 | 0.01 | 0.17 | 0.04 | 93 | 1010.3 |
| 20260903042208 | 59 | 197 | 4.0 | 8.0 | 0.01 | 0.17 | 0.04 | 93 | 1010.4 |
| 20260903040708 | 59 | 184 | 6.0 | 7.0 | 0.00 | 0.16 | 0.03 | 93 | 1010.5 |
| 20260903034208 | 59 | 230 | 3.0 | 7.0 | 0.00 | 0.16 | 0.03 | 92 | 1010.6 |
| 20260903033208 | 59 | 166 | 2.0 | 6.0 | 0.00 | 0.16 | 0.03 | 92 | 1010.7 |
| 20260903030709 | 59 | 189 | 3.0 | 8.0 | 0.00 | 0.16 | 0.03 | 92 | 1010.9 |
| 20260903025208 | 59 | 169 | 5.0 | 8.0 | 0.00 | 0.16 | 0.03 | 92 | 1010.9 |
| 20260903024708 | 59 | 180 | 5.0 | 7.0 | 0.00 | 0.16 | 0.03 | 92 | 1011.0 |
| 20260903024210 | 59 | 188 | 2.0 | 6.0 | 0.00 | 0.16 | 0.03 | 92 | 1011.0 |
| 20260903021708 | 59 | 196 | 5.0 | 8.0 | 0.01 | 0.17 | 0.03 | 92 | 1011.5 |
| 20260903020709 | 59 | 186 | 3.0 | 6.0 | 0.02 | 0.17 | 0.03 | 92 | 1011.5 |
| 20260903015209 | 59 | 188 | 5.0 | 6.0 | 0.03 | 0.17 | 0.03 | 92 | 1011.5 |
| 20260903013709 | 59 | 212 | 3.0 | 5.0 | 0.03 | 0.17 | 0.03 | 92 | 1011.7 |